Terminal Aerodrome Forecast
Issued by NWS Jackson, MS

Home | Current Version | Previous Version | Text Only | Print | Product List | Glossary On
Versions: 1 2 3 4 5 6 7 8 9 10 11 12 13 14 15 16 17
000
FTUS44 KJAN 210500
TAFGLH
TAF
KGLH 210533Z 2106/2206 15005KT P6SM SCT250
     FM211300 19011KT P6SM VCSH OVC100
     FM211800 21013KT P6SM SCT050 SCT120
     FM220000 20006KT P6SM -SHRA VCTS SCT030 BKN050CB OVC120=

USA.gov is the U.S. government's official web portal to all federal, state and local government web resources and services.